sensor_id;sensor_type;location;lat;lon;timestamp;P1;durP1;ratioP1;P2;durP2;ratioP2
25479;SDS011;13393;49.378;8.686;2023-02-03T00:02:11;7.55;;;2.40;;
25479;SDS011;13393;49.378;8.686;2023-02-03T00:04:37;7.82;;;2.70;;
25479;SDS011;13393;49.378;8.686;2023-02-03T00:07:03;6.32;;;2.50;;
25479;SDS011;13393;49.378;8.686;2023-02-03T00:09:30;4.65;;;1.80;;
25479;SDS011;13393;49.378;8.686;2023-02-03T00:11:56;5.07;;;2.22;;
25479;SDS011;13393;49.378;8.686;2023-02-03T00:14:23;14.10;;;2.78;;
25479;SDS011;13393;49.378;8.686;2023-02-03T00:16:50;6.43;;;2.22;;
25479;SDS011;13393;49.378;8.686;2023-02-03T00:19:17;9.07;;;2.75;;
25479;SDS011;13393;49.378;8.686;2023-02-03T00:21:43;4.07;;;2.00;;
25479;SDS011;13393;49.378;8.686;2023-02-03T00:24:09;6.25;;;2.60;;
25479;SDS011;13393;49.378;8.686;2023-02-03T00:26:39;8.85;;;2.60;;
25479;SDS011;13393;49.378;8.686;2023-02-03T00:29:05;5.75;;;2.88;;
25479;SDS011;13393;49.378;8.686;2023-02-03T00:31:33;5.68;;;2.25;;
25479;SDS011;13393;49.378;8.686;2023-02-03T00:34:01;8.65;;;2.28;;
25479;SDS011;13393;49.378;8.686;2023-02-03T00:36:27;8.90;;;2.95;;
25479;SDS011;13393;49.378;8.686;2023-02-03T00:38:53;8.30;;;2.60;;
25479;SDS011;13393;49.378;8.686;2023-02-03T00:41:20;7.05;;;3.42;;
25479;SDS011;13393;49.378;8.686;2023-02-03T00:43:46;8.55;;;3.58;;
25479;SDS011;13393;49.378;8.686;2023-02-03T00:46:13;7.18;;;2.63;;
25479;SDS011;13393;49.378;8.686;2023-02-03T00:48:39;8.18;;;2.28;;
25479;SDS011;13393;49.378;8.686;2023-02-03T00:51:07;5.68;;;3.15;;
25479;SDS011;13393;49.378;8.686;2023-02-03T00:53:33;5.72;;;2.42;;
25479;SDS011;13393;49.378;8.686;2023-02-03T00:56:00;6.00;;;2.33;;
25479;SDS011;13393;49.378;8.686;2023-02-03T00:58:26;8.60;;;2.70;;
25479;SDS011;13393;49.378;8.686;2023-02-03T01:00:53;4.57;;;2.45;;
25479;SDS011;13393;49.378;8.686;2023-02-03T01:03:19;8.75;;;2.63;;
25479;SDS011;13393;49.378;8.686;2023-02-03T01:05:45;7.32;;;2.60;;
25479;SDS011;13393;49.378;8.686;2023-02-03T01:08:13;5.97;;;2.55;;
25479;SDS011;13393;49.378;8.686;2023-02-03T01:10:40;8.88;;;2.53;;
25479;SDS011;13393;49.378;8.686;2023-02-03T01:13:06;6.22;;;2.72;;
25479;SDS011;13393;49.378;8.686;2023-02-03T01:15:33;5.10;;;2.22;;
25479;SDS011;13393;49.378;8.686;2023-02-03T01:17:59;5.93;;;2.80;;
25479;SDS011;13393;49.378;8.686;2023-02-03T01:20:25;5.35;;;2.50;;
25479;SDS011;13393;49.378;8.686;2023-02-03T01:22:52;4.97;;;2.50;;
25479;SDS011;13393;49.378;8.686;2023-02-03T01:25:20;7.60;;;2.83;;
25479;SDS011;13393;49.378;8.686;2023-02-03T01:27:46;6.18;;;2.42;;
25479;SDS011;13393;49.378;8.686;2023-02-03T01:30:12;4.10;;;2.38;;
25479;SDS011;13393;49.378;8.686;2023-02-03T01:32:39;8.20;;;2.92;;
25479;SDS011;13393;49.378;8.686;2023-02-03T01:35:05;10.20;;;2.80;;
25479;SDS011;13393;49.378;8.686;2023-02-03T01:37:32;6.05;;;2.30;;
25479;SDS011;13393;49.378;8.686;2023-02-03T01:39:58;4.00;;;2.40;;
25479;SDS011;13393;49.378;8.686;2023-02-03T01:42:26;3.90;;;2.40;;
25479;SDS011;13393;49.378;8.686;2023-02-03T01:44:53;7.00;;;2.70;;
25479;SDS011;13393;49.378;8.686;2023-02-03T01:47:22;5.95;;;2.78;;
25479;SDS011;13393;49.378;8.686;2023-02-03T01:49:51;7.43;;;2.80;;
25479;SDS011;13393;49.378;8.686;2023-02-03T01:52:18;8.85;;;2.78;;
25479;SDS011;13393;49.378;8.686;2023-02-03T01:54:44;7.40;;;2.33;;
25479;SDS011;13393;49.378;8.686;2023-02-03T01:57:12;6.28;;;2.40;;
25479;SDS011;13393;49.378;8.686;2023-02-03T01:59:41;7.85;;;2.40;;
25479;SDS011;13393;49.378;8.686;2023-02-03T02:02:08;6.25;;;2.55;;
25479;SDS011;13393;49.378;8.686;2023-02-03T02:04:37;8.13;;;2.78;;
25479;SDS011;13393;49.378;8.686;2023-02-03T02:07:05;5.75;;;2.20;;
25479;SDS011;13393;49.378;8.686;2023-02-03T02:09:32;3.33;;;2.05;;
25479;SDS011;13393;49.378;8.686;2023-02-03T02:11:58;6.80;;;2.15;;
25479;SDS011;13393;49.378;8.686;2023-02-03T02:14:24;6.15;;;2.25;;
25479;SDS011;13393;49.378;8.686;2023-02-03T02:16:54;5.45;;;2.13;;
25479;SDS011;13393;49.378;8.686;2023-02-03T02:22:08;6.10;;;2.42;;
25479;SDS011;13393;49.378;8.686;2023-02-03T02:24:54;5.88;;;2.10;;
25479;SDS011;13393;49.378;8.686;2023-02-03T02:30:13;6.95;;;2.20;;
25479;SDS011;13393;49.378;8.686;2023-02-03T02:32:48;7.93;;;2.47;;
25479;SDS011;13393;49.378;8.686;2023-02-03T02:35:19;5.43;;;2.22;;
25479;SDS011;13393;49.378;8.686;2023-02-03T02:37:51;4.40;;;2.28;;
25479;SDS011;13393;49.378;8.686;2023-02-03T02:40:20;6.00;;;2.25;;
25479;SDS011;13393;49.378;8.686;2023-02-03T02:42:53;3.78;;;2.33;;
25479;SDS011;13393;49.378;8.686;2023-02-03T02:45:21;3.47;;;2.30;;
25479;SDS011;13393;49.378;8.686;2023-02-03T02:47:51;4.15;;;1.95;;
25479;SDS011;13393;49.378;8.686;2023-02-03T02:50:21;3.80;;;2.00;;
25479;SDS011;13393;49.378;8.686;2023-02-03T02:52:48;4.38;;;2.35;;
25479;SDS011;13393;49.378;8.686;2023-02-03T02:55:16;3.90;;;2.00;;
25479;SDS011;13393;49.378;8.686;2023-02-03T02:57:43;3.85;;;2.17;;
25479;SDS011;13393;49.378;8.686;2023-02-03T03:00:11;3.15;;;1.98;;
25479;SDS011;13393;49.378;8.686;2023-02-03T03:02:37;4.97;;;2.30;;
25479;SDS011;13393;49.378;8.686;2023-02-03T03:05:06;3.97;;;2.30;;
25479;SDS011;13393;49.378;8.686;2023-02-03T03:07:35;3.38;;;2.00;;
25479;SDS011;13393;49.378;8.686;2023-02-03T03:10:04;5.22;;;2.35;;
25479;SDS011;13393;49.378;8.686;2023-02-03T03:12:33;5.60;;;2.40;;
25479;SDS011;13393;49.378;8.686;2023-02-03T03:15:01;4.00;;;1.95;;
25479;SDS011;13393;49.378;8.686;2023-02-03T03:17:29;6.43;;;2.50;;
25479;SDS011;13393;49.378;8.686;2023-02-03T03:19:56;4.50;;;2.42;;
25479;SDS011;13393;49.378;8.686;2023-02-03T03:22:28;3.42;;;2.13;;
25479;SDS011;13393;49.378;8.686;2023-02-03T03:24:57;4.53;;;2.25;;
25479;SDS011;13393;49.378;8.686;2023-02-03T03:27:25;3.60;;;2.10;;
25479;SDS011;13393;49.378;8.686;2023-02-03T03:29:55;4.22;;;2.28;;
25479;SDS011;13393;49.378;8.686;2023-02-03T03:32:23;3.22;;;2.00;;
25479;SDS011;13393;49.378;8.686;2023-02-03T03:34:52;2.28;;;2.03;;
25479;SDS011;13393;49.378;8.686;2023-02-03T03:37:21;3.50;;;2.42;;
25479;SDS011;13393;49.378;8.686;2023-02-03T03:39:53;4.22;;;2.25;;
25479;SDS011;13393;49.378;8.686;2023-02-03T03:42:21;3.42;;;2.20;;
25479;SDS011;13393;49.378;8.686;2023-02-03T03:44:50;3.67;;;2.47;;
25479;SDS011;13393;49.378;8.686;2023-02-03T03:47:18;2.38;;;1.88;;
25479;SDS011;13393;49.378;8.686;2023-02-03T03:49:46;2.85;;;2.03;;
25479;SDS011;13393;49.378;8.686;2023-02-03T03:52:13;4.28;;;2.53;;
25479;SDS011;13393;49.378;8.686;2023-02-03T03:54:41;3.00;;;2.17;;
25479;SDS011;13393;49.378;8.686;2023-02-03T03:57:10;3.33;;;2.03;;
25479;SDS011;13393;49.378;8.686;2023-02-03T03:59:39;3.05;;;2.22;;
25479;SDS011;13393;49.378;8.686;2023-02-03T04:02:07;3.45;;;2.17;;
25479;SDS011;13393;49.378;8.686;2023-02-03T04:04:33;5.30;;;3.00;;
25479;SDS011;13393;49.378;8.686;2023-02-03T04:07:01;3.70;;;2.38;;
25479;SDS011;13393;49.378;8.686;2023-02-03T04:09:27;3.58;;;2.20;;
25479;SDS011;13393;49.378;8.686;2023-02-03T04:11:54;3.33;;;2.05;;
25479;SDS011;13393;49.378;8.686;2023-02-03T04:14:27;6.22;;;2.40;;
25479;SDS011;13393;49.378;8.686;2023-02-03T04:16:55;3.45;;;1.98;;
25479;SDS011;13393;49.378;8.686;2023-02-03T04:19:21;3.92;;;2.15;;
25479;SDS011;13393;49.378;8.686;2023-02-03T04:21:47;2.83;;;2.10;;
25479;SDS011;13393;49.378;8.686;2023-02-03T04:24:14;5.35;;;2.50;;
25479;SDS011;13393;49.378;8.686;2023-02-03T04:26:40;5.88;;;2.35;;
25479;SDS011;13393;49.378;8.686;2023-02-03T04:29:07;4.03;;;2.20;;
25479;SDS011;13393;49.378;8.686;2023-02-03T04:31:34;4.20;;;2.50;;
25479;SDS011;13393;49.378;8.686;2023-02-03T04:34:02;7.43;;;2.70;;
25479;SDS011;13393;49.378;8.686;2023-02-03T04:36:29;4.82;;;2.30;;
25479;SDS011;13393;49.378;8.686;2023-02-03T04:38:55;5.05;;;2.30;;
25479;SDS011;13393;49.378;8.686;2023-02-03T04:41:21;4.13;;;2.35;;
25479;SDS011;13393;49.378;8.686;2023-02-03T04:43:48;3.85;;;2.40;;
25479;SDS011;13393;49.378;8.686;2023-02-03T04:46:14;3.95;;;2.42;;
25479;SDS011;13393;49.378;8.686;2023-02-03T04:48:42;3.53;;;2.40;;
25479;SDS011;13393;49.378;8.686;2023-02-03T04:51:08;5.20;;;2.58;;
25479;SDS011;13393;49.378;8.686;2023-02-03T04:53:34;6.97;;;2.80;;
25479;SDS011;13393;49.378;8.686;2023-02-03T04:56:01;7.43;;;2.90;;
25479;SDS011;13393;49.378;8.686;2023-02-03T04:58:27;4.88;;;2.90;;
25479;SDS011;13393;49.378;8.686;2023-02-03T05:00:54;8.80;;;3.63;;
25479;SDS011;13393;49.378;8.686;2023-02-03T05:03:21;4.95;;;2.72;;
25479;SDS011;13393;49.378;8.686;2023-02-03T05:05:49;6.60;;;2.58;;
25479;SDS011;13393;49.378;8.686;2023-02-03T05:08:15;4.93;;;2.28;;
25479;SDS011;13393;49.378;8.686;2023-02-03T05:10:42;4.68;;;2.70;;
25479;SDS011;13393;49.378;8.686;2023-02-03T05:13:08;3.35;;;2.58;;
25479;SDS011;13393;49.378;8.686;2023-02-03T05:15:36;4.97;;;2.70;;
25479;SDS011;13393;49.378;8.686;2023-02-03T05:18:02;4.43;;;3.03;;
25479;SDS011;13393;49.378;8.686;2023-02-03T05:20:28;5.93;;;3.42;;
25479;SDS011;13393;49.378;8.686;2023-02-03T05:22:56;4.75;;;2.50;;
25479;SDS011;13393;49.378;8.686;2023-02-03T05:25:22;3.10;;;2.40;;
25479;SDS011;13393;49.378;8.686;2023-02-03T05:27:49;6.03;;;2.42;;
25479;SDS011;13393;49.378;8.686;2023-02-03T05:30:15;4.68;;;2.78;;
25479;SDS011;13393;49.378;8.686;2023-02-03T05:32:42;4.53;;;2.95;;
25479;SDS011;13393;49.378;8.686;2023-02-03T05:35:08;7.10;;;2.75;;
25479;SDS011;13393;49.378;8.686;2023-02-03T05:37:34;4.63;;;2.55;;
25479;SDS011;13393;49.378;8.686;2023-02-03T05:40:02;5.47;;;2.50;;
25479;SDS011;13393;49.378;8.686;2023-02-03T05:42:46;8.82;;;2.72;;
25479;SDS011;13393;49.378;8.686;2023-02-03T05:45:13;4.75;;;2.70;;
25479;SDS011;13393;49.378;8.686;2023-02-03T05:47:39;5.05;;;2.78;;
25479;SDS011;13393;49.378;8.686;2023-02-03T05:50:06;5.35;;;3.15;;
25479;SDS011;13393;49.378;8.686;2023-02-03T05:52:32;5.70;;;2.75;;
25479;SDS011;13393;49.378;8.686;2023-02-03T05:54:58;4.28;;;2.42;;
25479;SDS011;13393;49.378;8.686;2023-02-03T05:57:26;4.00;;;2.80;;
25479;SDS011;13393;49.378;8.686;2023-02-03T05:59:53;4.75;;;2.90;;
25479;SDS011;13393;49.378;8.686;2023-02-03T06:02:19;3.78;;;2.80;;
25479;SDS011;13393;49.378;8.686;2023-02-03T06:04:45;3.95;;;3.10;;
25479;SDS011;13393;49.378;8.686;2023-02-03T06:07:12;4.65;;;2.88;;
25479;SDS011;13393;49.378;8.686;2023-02-03T06:09:38;5.28;;;3.03;;
25479;SDS011;13393;49.378;8.686;2023-02-03T06:12:05;6.22;;;3.13;;
25479;SDS011;13393;49.378;8.686;2023-02-03T06:14:32;3.33;;;2.83;;
25479;SDS011;13393;49.378;8.686;2023-02-03T06:16:59;4.35;;;3.20;;
25479;SDS011;13393;49.378;8.686;2023-02-03T06:19:25;4.07;;;2.97;;
25479;SDS011;13393;49.378;8.686;2023-02-03T06:21:51;6.05;;;3.35;;
25479;SDS011;13393;49.378;8.686;2023-02-03T06:24:18;7.45;;;3.33;;
25479;SDS011;13393;49.378;8.686;2023-02-03T06:26:44;5.53;;;2.90;;
25479;SDS011;13393;49.378;8.686;2023-02-03T06:29:10;8.93;;;3.53;;
25479;SDS011;13393;49.378;8.686;2023-02-03T06:31:38;7.43;;;3.58;;
25479;SDS011;13393;49.378;8.686;2023-02-03T06:34:04;4.70;;;3.30;;
25479;SDS011;13393;49.378;8.686;2023-02-03T06:36:31;4.22;;;2.97;;
25479;SDS011;13393;49.378;8.686;2023-02-03T06:38:57;5.72;;;3.03;;
25479;SDS011;13393;49.378;8.686;2023-02-03T06:41:23;5.22;;;2.92;;
25479;SDS011;13393;49.378;8.686;2023-02-03T06:43:54;5.05;;;2.63;;
25479;SDS011;13393;49.378;8.686;2023-02-03T06:46:20;4.43;;;3.10;;
25479;SDS011;13393;49.378;8.686;2023-02-03T06:48:48;4.28;;;2.85;;
25479;SDS011;13393;49.378;8.686;2023-02-03T06:51:14;4.63;;;2.75;;
25479;SDS011;13393;49.378;8.686;2023-02-03T06:53:41;4.82;;;2.78;;
25479;SDS011;13393;49.378;8.686;2023-02-03T06:56:07;4.43;;;2.88;;
25479;SDS011;13393;49.378;8.686;2023-02-03T06:58:33;6.70;;;3.10;;
25479;SDS011;13393;49.378;8.686;2023-02-03T07:01:00;3.30;;;2.97;;
25479;SDS011;13393;49.378;8.686;2023-02-03T07:03:26;5.68;;;3.15;;
25479;SDS011;13393;49.378;8.686;2023-02-03T07:05:54;5.68;;;3.55;;
25479;SDS011;13393;49.378;8.686;2023-02-03T07:08:20;6.68;;;3.05;;
25479;SDS011;13393;49.378;8.686;2023-02-03T07:10:46;5.43;;;3.05;;
25479;SDS011;13393;49.378;8.686;2023-02-03T07:13:13;6.93;;;3.25;;
25479;SDS011;13393;49.378;8.686;2023-02-03T07:15:39;7.72;;;3.28;;
25479;SDS011;13393;49.378;8.686;2023-02-03T07:18:05;6.93;;;3.10;;
25479;SDS011;13393;49.378;8.686;2023-02-03T07:20:32;5.22;;;3.28;;
25479;SDS011;13393;49.378;8.686;2023-02-03T07:22:59;6.18;;;3.00;;
25479;SDS011;13393;49.378;8.686;2023-02-03T07:25:26;6.30;;;2.88;;
25479;SDS011;13393;49.378;8.686;2023-02-03T07:27:52;5.47;;;2.88;;
25479;SDS011;13393;49.378;8.686;2023-02-03T07:30:18;5.80;;;2.97;;
25479;SDS011;13393;49.378;8.686;2023-02-03T07:32:45;4.55;;;2.80;;
25479;SDS011;13393;49.378;8.686;2023-02-03T07:35:12;4.18;;;3.25;;
25479;SDS011;13393;49.378;8.686;2023-02-03T07:37:38;4.03;;;2.80;;
25479;SDS011;13393;49.378;8.686;2023-02-03T07:40:06;5.50;;;3.22;;
25479;SDS011;13393;49.378;8.686;2023-02-03T07:42:32;5.72;;;2.50;;
25479;SDS011;13393;49.378;8.686;2023-02-03T07:44:59;4.53;;;2.65;;
25479;SDS011;13393;49.378;8.686;2023-02-03T07:47:25;4.93;;;2.83;;
25479;SDS011;13393;49.378;8.686;2023-02-03T07:49:52;6.72;;;3.00;;
25479;SDS011;13393;49.378;8.686;2023-02-03T07:52:18;8.75;;;2.53;;
25479;SDS011;13393;49.378;8.686;2023-02-03T07:54:44;5.53;;;2.40;;
25479;SDS011;13393;49.378;8.686;2023-02-03T07:57:12;4.20;;;2.40;;
25479;SDS011;13393;49.378;8.686;2023-02-03T07:59:39;5.10;;;2.30;;
25479;SDS011;13393;49.378;8.686;2023-02-03T08:02:05;5.13;;;2.47;;
25479;SDS011;13393;49.378;8.686;2023-02-03T08:04:33;5.47;;;2.50;;
25479;SDS011;13393;49.378;8.686;2023-02-03T08:06:59;2.95;;;2.00;;
25479;SDS011;13393;49.378;8.686;2023-02-03T08:09:25;2.55;;;2.15;;
25479;SDS011;13393;49.378;8.686;2023-02-03T08:11:52;3.70;;;2.22;;
25479;SDS011;13393;49.378;8.686;2023-02-03T08:14:19;3.67;;;2.28;;
25479;SDS011;13393;49.378;8.686;2023-02-03T08:16:46;4.13;;;2.40;;
25479;SDS011;13393;49.378;8.686;2023-02-03T08:19:12;4.50;;;2.42;;
25479;SDS011;13393;49.378;8.686;2023-02-03T08:21:39;3.50;;;1.85;;
25479;SDS011;13393;49.378;8.686;2023-02-03T08:24:05;3.85;;;2.10;;
25479;SDS011;13393;49.378;8.686;2023-02-03T08:26:31;6.55;;;2.40;;
25479;SDS011;13393;49.378;8.686;2023-02-03T08:28:58;3.90;;;2.00;;
25479;SDS011;13393;49.378;8.686;2023-02-03T08:31:25;5.78;;;2.10;;
25479;SDS011;13393;49.378;8.686;2023-02-03T08:33:52;3.08;;;1.92;;
25479;SDS011;13393;49.378;8.686;2023-02-03T08:36:18;4.00;;;1.80;;
25479;SDS011;13393;49.378;8.686;2023-02-03T08:38:45;4.72;;;2.22;;
25479;SDS011;13393;49.378;8.686;2023-02-03T08:41:12;5.35;;;2.20;;
25479;SDS011;13393;49.378;8.686;2023-02-03T08:43:39;6.75;;;2.40;;
25479;SDS011;13393;49.378;8.686;2023-02-03T08:46:06;5.50;;;2.42;;
25479;SDS011;13393;49.378;8.686;2023-02-03T08:48:35;3.55;;;2.00;;
25479;SDS011;13393;49.378;8.686;2023-02-03T08:51:01;4.50;;;2.17;;
25479;SDS011;13393;49.378;8.686;2023-02-03T08:53:28;3.88;;;1.98;;
25479;SDS011;13393;49.378;8.686;2023-02-03T08:55:54;3.03;;;2.42;;
25479;SDS011;13393;49.378;8.686;2023-02-03T08:58:21;5.15;;;2.22;;
25479;SDS011;13393;49.378;8.686;2023-02-03T09:00:47;5.63;;;2.40;;
25479;SDS011;13393;49.378;8.686;2023-02-03T09:03:14;3.75;;;2.10;;
25479;SDS011;13393;49.378;8.686;2023-02-03T09:05:41;8.40;;;2.28;;
25479;SDS011;13393;49.378;8.686;2023-02-03T09:08:08;4.72;;;1.88;;
25479;SDS011;13393;49.378;8.686;2023-02-03T09:10:35;3.05;;;1.85;;
25479;SDS011;13393;49.378;8.686;2023-02-03T09:13:01;6.57;;;2.55;;
25479;SDS011;13393;49.378;8.686;2023-02-03T09:15:27;7.43;;;3.13;;
25479;SDS011;13393;49.378;8.686;2023-02-03T09:17:54;6.03;;;2.30;;
25479;SDS011;13393;49.378;8.686;2023-02-03T09:20:21;7.88;;;2.38;;
25479;SDS011;13393;49.378;8.686;2023-02-03T09:22:51;4.13;;;1.95;;
25479;SDS011;13393;49.378;8.686;2023-02-03T09:25:19;3.50;;;1.90;;
25479;SDS011;13393;49.378;8.686;2023-02-03T09:27:45;4.13;;;1.80;;
25479;SDS011;13393;49.378;8.686;2023-02-03T09:30:12;3.58;;;2.00;;
25479;SDS011;13393;49.378;8.686;2023-02-03T09:32:39;4.55;;;1.90;;
25479;SDS011;13393;49.378;8.686;2023-02-03T09:35:05;2.90;;;1.80;;
25479;SDS011;13393;49.378;8.686;2023-02-03T09:37:32;1.77;;;1.67;;
25479;SDS011;13393;49.378;8.686;2023-02-03T09:39:59;3.47;;;1.90;;
25479;SDS011;13393;49.378;8.686;2023-02-03T09:42:41;2.97;;;1.80;;
25479;SDS011;13393;49.378;8.686;2023-02-03T09:45:10;3.08;;;1.52;;
25479;SDS011;13393;49.378;8.686;2023-02-03T09:47:40;1.83;;;1.67;;
25479;SDS011;13393;49.378;8.686;2023-02-03T09:50:10;2.95;;;1.70;;
25479;SDS011;13393;49.378;8.686;2023-02-03T09:52:37;2.72;;;1.67;;
25479;SDS011;13393;49.378;8.686;2023-02-03T09:55:10;3.38;;;1.90;;
25479;SDS011;13393;49.378;8.686;2023-02-03T09:57:43;2.05;;;1.70;;
25479;SDS011;13393;49.378;8.686;2023-02-03T10:00:13;5.10;;;1.90;;
25479;SDS011;13393;49.378;8.686;2023-02-03T10:02:45;3.63;;;1.98;;
25479;SDS011;13393;49.378;8.686;2023-02-03T10:05:17;4.28;;;1.95;;
25479;SDS011;13393;49.378;8.686;2023-02-03T10:07:47;2.58;;;1.73;;
25479;SDS011;13393;49.378;8.686;2023-02-03T10:10:20;4.65;;;1.92;;
25479;SDS011;13393;49.378;8.686;2023-02-03T10:12:51;2.13;;;1.70;;
25479;SDS011;13393;49.378;8.686;2023-02-03T10:15:22;4.68;;;1.95;;
25479;SDS011;13393;49.378;8.686;2023-02-03T10:17:58;3.03;;;1.70;;
25479;SDS011;13393;49.378;8.686;2023-02-03T10:20:27;3.05;;;1.73;;
25479;SDS011;13393;49.378;8.686;2023-02-03T10:22:58;3.65;;;1.92;;
25479;SDS011;13393;49.378;8.686;2023-02-03T10:25:29;3.67;;;1.67;;
25479;SDS011;13393;49.378;8.686;2023-02-03T10:27:57;2.25;;;1.80;;
25479;SDS011;13393;49.378;8.686;2023-02-03T10:30:26;5.65;;;2.17;;
25479;SDS011;13393;49.378;8.686;2023-02-03T10:32:56;2.10;;;1.40;;
25479;SDS011;13393;49.378;8.686;2023-02-03T10:35:26;3.22;;;1.50;;
25479;SDS011;13393;49.378;8.686;2023-02-03T10:37:54;1.98;;;1.75;;
25479;SDS011;13393;49.378;8.686;2023-02-03T10:40:22;1.98;;;1.77;;
25479;SDS011;13393;49.378;8.686;2023-02-03T10:42:51;3.53;;;1.45;;
25479;SDS011;13393;49.378;8.686;2023-02-03T10:45:36;2.00;;;1.63;;
25479;SDS011;13393;49.378;8.686;2023-02-03T10:48:03;2.47;;;1.63;;
25479;SDS011;13393;49.378;8.686;2023-02-03T10:50:31;3.83;;;1.83;;
25479;SDS011;13393;49.378;8.686;2023-02-03T10:55:38;4.25;;;1.60;;
25479;SDS011;13393;49.378;8.686;2023-02-03T10:58:09;5.78;;;2.30;;
25479;SDS011;13393;49.378;8.686;2023-02-03T11:00:39;2.75;;;1.58;;
25479;SDS011;13393;49.378;8.686;2023-02-03T11:03:06;2.95;;;1.83;;
25479;SDS011;13393;49.378;8.686;2023-02-03T11:05:33;3.90;;;1.75;;
25479;SDS011;13393;49.378;8.686;2023-02-03T11:08:00;4.93;;;1.80;;
25479;SDS011;13393;49.378;8.686;2023-02-03T11:10:27;1.70;;;1.42;;
25479;SDS011;13393;49.378;8.686;2023-02-03T11:13:08;4.60;;;2.20;;
25479;SDS011;13393;49.378;8.686;2023-02-03T11:15:35;1.92;;;1.52;;
25479;SDS011;13393;49.378;8.686;2023-02-03T11:18:02;1.50;;;1.40;;
25479;SDS011;13393;49.378;8.686;2023-02-03T11:20:29;2.78;;;1.60;;
25479;SDS011;13393;49.378;8.686;2023-02-03T11:22:57;2.25;;;1.40;;
25479;SDS011;13393;49.378;8.686;2023-02-03T11:25:25;3.25;;;1.42;;
25479;SDS011;13393;49.378;8.686;2023-02-03T11:27:53;2.85;;;1.83;;
25479;SDS011;13393;49.378;8.686;2023-02-03T11:30:23;3.65;;;1.60;;
25479;SDS011;13393;49.378;8.686;2023-02-03T11:32:51;4.15;;;2.05;;
25479;SDS011;13393;49.378;8.686;2023-02-03T11:35:18;3.13;;;1.73;;
25479;SDS011;13393;49.378;8.686;2023-02-03T11:37:46;2.47;;;1.50;;
25479;SDS011;13393;49.378;8.686;2023-02-03T11:40:21;4.20;;;1.58;;
25479;SDS011;13393;49.378;8.686;2023-02-03T11:42:58;2.83;;;1.70;;
25479;SDS011;13393;49.378;8.686;2023-02-03T11:45:27;2.50;;;1.42;;
25479;SDS011;13393;49.378;8.686;2023-02-03T11:47:54;1.40;;;1.30;;
25479;SDS011;13393;49.378;8.686;2023-02-03T11:50:23;3.28;;;1.65;;
25479;SDS011;13393;49.378;8.686;2023-02-03T11:53:03;3.00;;;1.83;;
25479;SDS011;13393;49.378;8.686;2023-02-03T11:55:33;1.30;;;1.20;;
25479;SDS011;13393;49.378;8.686;2023-02-03T11:58:06;1.83;;;1.50;;
25479;SDS011;13393;49.378;8.686;2023-02-03T12:00:39;1.58;;;1.40;;
25479;SDS011;13393;49.378;8.686;2023-02-03T12:03:29;3.65;;;1.45;;
25479;SDS011;13393;49.378;8.686;2023-02-03T12:06:00;3.20;;;1.65;;
25479;SDS011;13393;49.378;8.686;2023-02-03T12:08:34;1.30;;;1.20;;
25479;SDS011;13393;49.378;8.686;2023-02-03T12:11:05;0.95;;;0.80;;
25479;SDS011;13393;49.378;8.686;2023-02-03T12:16:21;0.88;;;0.63;;
25479;SDS011;13393;49.378;8.686;2023-02-03T12:18:52;2.35;;;0.90;;
25479;SDS011;13393;49.378;8.686;2023-02-03T12:21:26;0.85;;;0.60;;
25479;SDS011;13393;49.378;8.686;2023-02-03T12:23:59;1.13;;;0.95;;
25479;SDS011;13393;49.378;8.686;2023-02-03T12:26:28;0.70;;;0.70;;
25479;SDS011;13393;49.378;8.686;2023-02-03T12:29:00;2.05;;;0.80;;
25479;SDS011;13393;49.378;8.686;2023-02-03T12:31:31;0.70;;;0.70;;
25479;SDS011;13393;49.378;8.686;2023-02-03T12:34:02;1.65;;;0.80;;
25479;SDS011;13393;49.378;8.686;2023-02-03T12:36:31;0.90;;;0.68;;
25479;SDS011;13393;49.378;8.686;2023-02-03T12:39:01;0.70;;;0.63;;
25479;SDS011;13393;49.378;8.686;2023-02-03T12:41:30;1.13;;;0.80;;
25479;SDS011;13393;49.378;8.686;2023-02-03T12:44:00;1.40;;;0.93;;
25479;SDS011;13393;49.378;8.686;2023-02-03T12:46:32;0.73;;;0.73;;
25479;SDS011;13393;49.378;8.686;2023-02-03T12:49:02;0.82;;;0.70;;
25479;SDS011;13393;49.378;8.686;2023-02-03T12:51:32;2.58;;;1.35;;
25479;SDS011;13393;49.378;8.686;2023-02-03T12:54:00;2.85;;;1.05;;
25479;SDS011;13393;49.378;8.686;2023-02-03T12:56:29;2.00;;;1.27;;
25479;SDS011;13393;49.378;8.686;2023-02-03T12:58:59;0.77;;;0.60;;
25479;SDS011;13393;49.378;8.686;2023-02-03T13:01:32;1.02;;;0.93;;
25479;SDS011;13393;49.378;8.686;2023-02-03T13:04:00;0.77;;;0.77;;
25479;SDS011;13393;49.378;8.686;2023-02-03T13:06:29;0.93;;;0.80;;
25479;SDS011;13393;49.378;8.686;2023-02-03T13:08:57;1.38;;;0.82;;
25479;SDS011;13393;49.378;8.686;2023-02-03T13:11:27;3.53;;;1.35;;
25479;SDS011;13393;49.378;8.686;2023-02-03T13:13:57;2.83;;;1.38;;
25479;SDS011;13393;49.378;8.686;2023-02-03T13:16:32;1.38;;;0.80;;
25479;SDS011;13393;49.378;8.686;2023-02-03T13:19:03;0.90;;;0.60;;
25479;SDS011;13393;49.378;8.686;2023-02-03T13:21:30;0.70;;;0.70;;
25479;SDS011;13393;49.378;8.686;2023-02-03T13:23:56;6.18;;;1.40;;
25479;SDS011;13393;49.378;8.686;2023-02-03T13:26:37;2.97;;;1.27;;
25479;SDS011;13393;49.378;8.686;2023-02-03T13:29:21;1.95;;;0.93;;
25479;SDS011;13393;49.378;8.686;2023-02-03T13:31:53;4.00;;;0.80;;
25479;SDS011;13393;49.378;8.686;2023-02-03T13:34:31;0.90;;;0.70;;
25479;SDS011;13393;49.378;8.686;2023-02-03T13:37:08;0.80;;;0.65;;
25479;SDS011;13393;49.378;8.686;2023-02-03T13:39:42;1.42;;;0.70;;
25479;SDS011;13393;49.378;8.686;2023-02-03T13:42:12;1.15;;;0.60;;
25479;SDS011;13393;49.378;8.686;2023-02-03T13:44:43;0.88;;;0.80;;
25479;SDS011;13393;49.378;8.686;2023-02-03T13:47:13;2.63;;;0.70;;
25479;SDS011;13393;49.378;8.686;2023-02-03T13:49:42;1.25;;;1.15;;
25479;SDS011;13393;49.378;8.686;2023-02-03T13:52:22;0.82;;;0.73;;
25479;SDS011;13393;49.378;8.686;2023-02-03T13:54:48;1.65;;;0.82;;
25479;SDS011;13393;49.378;8.686;2023-02-03T13:57:18;2.72;;;0.95;;
25479;SDS011;13393;49.378;8.686;2023-02-03T13:59:46;1.75;;;0.88;;
25479;SDS011;13393;49.378;8.686;2023-02-03T14:08:00;1.75;;;1.35;;
25479;SDS011;13393;49.378;8.686;2023-02-03T14:10:47;4.65;;;2.65;;
25479;SDS011;13393;49.378;8.686;2023-02-03T14:13:34;14.88;;;7.70;;
25479;SDS011;13393;49.378;8.686;2023-02-03T14:16:13;12.60;;;5.95;;
25479;SDS011;13393;49.378;8.686;2023-02-03T14:18:43;2.08;;;1.17;;
25479;SDS011;13393;49.378;8.686;2023-02-03T14:21:11;0.70;;;0.68;;
25479;SDS011;13393;49.378;8.686;2023-02-03T14:23:42;0.77;;;0.55;;
25479;SDS011;13393;49.378;8.686;2023-02-03T14:26:18;0.73;;;0.70;;
25479;SDS011;13393;49.378;8.686;2023-02-03T14:28:45;0.95;;;0.70;;
25479;SDS011;13393;49.378;8.686;2023-02-03T14:31:13;0.77;;;0.50;;
25479;SDS011;13393;49.378;8.686;2023-02-03T14:33:54;3.78;;;0.65;;
25479;SDS011;13393;49.378;8.686;2023-02-03T14:36:29;0.63;;;0.60;;
25479;SDS011;13393;49.378;8.686;2023-02-03T14:38:57;0.60;;;0.60;;
25479;SDS011;13393;49.378;8.686;2023-02-03T14:41:27;1.05;;;0.50;;
25479;SDS011;13393;49.378;8.686;2023-02-03T14:43:57;2.05;;;1.15;;
25479;SDS011;13393;49.378;8.686;2023-02-03T14:46:33;1.10;;;0.70;;
25479;SDS011;13393;49.378;8.686;2023-02-03T14:51:56;3.00;;;0.63;;
25479;SDS011;13393;49.378;8.686;2023-02-03T14:54:30;0.63;;;0.50;;
25479;SDS011;13393;49.378;8.686;2023-02-03T14:59:46;0.80;;;0.50;;
25479;SDS011;13393;49.378;8.686;2023-02-03T15:02:14;0.70;;;0.70;;
25479;SDS011;13393;49.378;8.686;2023-02-03T15:04:41;2.80;;;1.17;;
25479;SDS011;13393;49.378;8.686;2023-02-03T15:07:09;2.30;;;1.02;;
25479;SDS011;13393;49.378;8.686;2023-02-03T15:09:56;0.95;;;0.77;;
25479;SDS011;13393;49.378;8.686;2023-02-03T15:12:23;0.73;;;0.73;;
25479;SDS011;13393;49.378;8.686;2023-02-03T15:14:51;1.10;;;0.60;;
25479;SDS011;13393;49.378;8.686;2023-02-03T15:17:20;0.52;;;0.52;;
25479;SDS011;13393;49.378;8.686;2023-02-03T15:19:48;0.68;;;0.50;;